sensor_id;sensor_type;location;lat;lon;timestamp;P1;durP1;ratioP1;P2;durP2;ratioP2
12171;SDS011;6149;52.418;13.668;2023-07-31T00:00:03;3.47;;;1.87;;
12171;SDS011;6149;52.418;13.668;2023-07-31T00:02:31;2.60;;;1.50;;
12171;SDS011;6149;52.418;13.668;2023-07-31T00:04:59;2.80;;;1.50;;
12171;SDS011;6149;52.418;13.668;2023-07-31T00:07:26;4.07;;;1.77;;
12171;SDS011;6149;52.418;13.668;2023-07-31T00:09:53;3.40;;;1.40;;
12171;SDS011;6149;52.418;13.668;2023-07-31T00:12:21;2.53;;;1.60;;
12171;SDS011;6149;52.418;13.668;2023-07-31T00:14:48;2.00;;;1.43;;
12171;SDS011;6149;52.418;13.668;2023-07-31T00:17:16;2.50;;;1.70;;
12171;SDS011;6149;52.418;13.668;2023-07-31T00:19:44;4.63;;;2.10;;
12171;SDS011;6149;52.418;13.668;2023-07-31T00:22:12;4.33;;;2.03;;
12171;SDS011;6149;52.418;13.668;2023-07-31T00:24:39;3.47;;;2.20;;
12171;SDS011;6149;52.418;13.668;2023-07-31T00:27:05;4.47;;;2.20;;
12171;SDS011;6149;52.418;13.668;2023-07-31T00:29:32;3.93;;;2.27;;
12171;SDS011;6149;52.418;13.668;2023-07-31T00:32:00;4.30;;;2.57;;
12171;SDS011;6149;52.418;13.668;2023-07-31T00:34:27;5.87;;;2.67;;
12171;SDS011;6149;52.418;13.668;2023-07-31T00:36:53;4.43;;;2.60;;
12171;SDS011;6149;52.418;13.668;2023-07-31T00:39:21;4.60;;;2.47;;
12171;SDS011;6149;52.418;13.668;2023-07-31T00:41:48;4.50;;;2.47;;
12171;SDS011;6149;52.418;13.668;2023-07-31T00:44:15;3.43;;;2.27;;
12171;SDS011;6149;52.418;13.668;2023-07-31T00:46:41;4.00;;;2.40;;
12171;SDS011;6149;52.418;13.668;2023-07-31T00:49:08;4.20;;;2.77;;
12171;SDS011;6149;52.418;13.668;2023-07-31T00:51:35;5.53;;;2.93;;
12171;SDS011;6149;52.418;13.668;2023-07-31T00:54:02;4.40;;;2.50;;
12171;SDS011;6149;52.418;13.668;2023-07-31T00:56:31;4.17;;;2.50;;
12171;SDS011;6149;52.418;13.668;2023-07-31T00:58:58;2.63;;;2.30;;
12171;SDS011;6149;52.418;13.668;2023-07-31T01:01:25;3.40;;;2.47;;
12171;SDS011;6149;52.418;13.668;2023-07-31T01:03:53;3.30;;;2.40;;
12171;SDS011;6149;52.418;13.668;2023-07-31T01:06:22;4.07;;;2.33;;
12171;SDS011;6149;52.418;13.668;2023-07-31T01:09:02;5.37;;;2.47;;
12171;SDS011;6149;52.418;13.668;2023-07-31T01:11:33;3.17;;;2.67;;
12171;SDS011;6149;52.418;13.668;2023-07-31T01:14:05;5.80;;;2.37;;
12171;SDS011;6149;52.418;13.668;2023-07-31T01:16:32;5.97;;;2.80;;
12171;SDS011;6149;52.418;13.668;2023-07-31T01:18:59;4.97;;;2.37;;
12171;SDS011;6149;52.418;13.668;2023-07-31T01:21:30;3.73;;;2.80;;
12171;SDS011;6149;52.418;13.668;2023-07-31T01:24:20;4.87;;;2.60;;
12171;SDS011;6149;52.418;13.668;2023-07-31T01:26:52;2.63;;;2.10;;
12171;SDS011;6149;52.418;13.668;2023-07-31T01:29:25;5.17;;;2.73;;
12171;SDS011;6149;52.418;13.668;2023-07-31T01:32:02;3.47;;;2.50;;
12171;SDS011;6149;52.418;13.668;2023-07-31T01:34:29;4.63;;;2.40;;
12171;SDS011;6149;52.418;13.668;2023-07-31T01:36:59;3.80;;;3.00;;
12171;SDS011;6149;52.418;13.668;2023-07-31T01:39:26;5.63;;;2.70;;
12171;SDS011;6149;52.418;13.668;2023-07-31T01:41:54;4.27;;;2.47;;
12171;SDS011;6149;52.418;13.668;2023-07-31T01:44:20;5.47;;;2.70;;
12171;SDS011;6149;52.418;13.668;2023-07-31T01:46:47;5.30;;;2.70;;
12171;SDS011;6149;52.418;13.668;2023-07-31T01:49:14;6.10;;;3.00;;
12171;SDS011;6149;52.418;13.668;2023-07-31T01:51:40;5.17;;;3.10;;
12171;SDS011;6149;52.418;13.668;2023-07-31T01:54:07;4.43;;;3.07;;
12171;SDS011;6149;52.418;13.668;2023-07-31T01:56:33;5.63;;;3.30;;
12171;SDS011;6149;52.418;13.668;2023-07-31T01:59:01;3.10;;;2.80;;
12171;SDS011;6149;52.418;13.668;2023-07-31T02:01:28;5.07;;;3.07;;
12171;SDS011;6149;52.418;13.668;2023-07-31T02:03:54;6.27;;;3.10;;
12171;SDS011;6149;52.418;13.668;2023-07-31T02:06:21;5.67;;;3.30;;
12171;SDS011;6149;52.418;13.668;2023-07-31T02:08:48;7.20;;;3.40;;
12171;SDS011;6149;52.418;13.668;2023-07-31T02:11:15;7.27;;;3.50;;
12171;SDS011;6149;52.418;13.668;2023-07-31T02:13:41;6.10;;;3.67;;
12171;SDS011;6149;52.418;13.668;2023-07-31T02:16:09;5.10;;;3.43;;
12171;SDS011;6149;52.418;13.668;2023-07-31T02:18:36;5.67;;;3.40;;
12171;SDS011;6149;52.418;13.668;2023-07-31T02:21:02;5.33;;;3.60;;
12171;SDS011;6149;52.418;13.668;2023-07-31T02:23:29;7.13;;;4.07;;
12171;SDS011;6149;52.418;13.668;2023-07-31T02:25:56;5.33;;;3.70;;
12171;SDS011;6149;52.418;13.668;2023-07-31T02:28:22;5.67;;;3.67;;
12171;SDS011;6149;52.418;13.668;2023-07-31T02:30:49;5.53;;;3.43;;
12171;SDS011;6149;52.418;13.668;2023-07-31T02:33:18;8.13;;;4.10;;
12171;SDS011;6149;52.418;13.668;2023-07-31T02:35:45;5.20;;;3.80;;
12171;SDS011;6149;52.418;13.668;2023-07-31T02:38:11;6.10;;;4.33;;
12171;SDS011;6149;52.418;13.668;2023-07-31T02:40:38;5.60;;;4.27;;
12171;SDS011;6149;52.418;13.668;2023-07-31T02:43:06;7.60;;;4.30;;
12171;SDS011;6149;52.418;13.668;2023-07-31T02:45:32;6.70;;;4.23;;
12171;SDS011;6149;52.418;13.668;2023-07-31T02:47:59;7.17;;;4.47;;
12171;SDS011;6149;52.418;13.668;2023-07-31T02:50:27;6.37;;;4.40;;
12171;SDS011;6149;52.418;13.668;2023-07-31T02:52:53;6.43;;;4.33;;
12171;SDS011;6149;52.418;13.668;2023-07-31T02:55:20;7.80;;;3.97;;
12171;SDS011;6149;52.418;13.668;2023-07-31T02:57:46;6.97;;;4.40;;
12171;SDS011;6149;52.418;13.668;2023-07-31T03:00:13;6.93;;;4.57;;
12171;SDS011;6149;52.418;13.668;2023-07-31T03:02:40;6.47;;;4.47;;
12171;SDS011;6149;52.418;13.668;2023-07-31T03:05:06;5.43;;;4.47;;
12171;SDS011;6149;52.418;13.668;2023-07-31T03:07:35;8.05;;;5.40;;
12171;SDS011;6149;52.418;13.668;2023-07-31T03:10:03;9.27;;;5.30;;
12171;SDS011;6149;52.418;13.668;2023-07-31T03:12:31;6.03;;;4.83;;
12171;SDS011;6149;52.418;13.668;2023-07-31T03:14:58;9.30;;;4.70;;
12171;SDS011;6149;52.418;13.668;2023-07-31T03:17:24;7.83;;;4.80;;
12171;SDS011;6149;52.418;13.668;2023-07-31T03:19:51;8.27;;;5.20;;
12171;SDS011;6149;52.418;13.668;2023-07-31T03:22:17;6.90;;;5.00;;
12171;SDS011;6149;52.418;13.668;2023-07-31T03:24:45;6.60;;;4.67;;
12171;SDS011;6149;52.418;13.668;2023-07-31T03:27:12;8.40;;;5.20;;
12171;SDS011;6149;52.418;13.668;2023-07-31T03:29:38;7.33;;;4.80;;
12171;SDS011;6149;52.418;13.668;2023-07-31T03:32:05;5.70;;;4.97;;
12171;SDS011;6149;52.418;13.668;2023-07-31T03:34:32;7.17;;;4.93;;
12171;SDS011;6149;52.418;13.668;2023-07-31T03:36:59;7.60;;;5.07;;
12171;SDS011;6149;52.418;13.668;2023-07-31T03:39:25;6.90;;;5.50;;
12171;SDS011;6149;52.418;13.668;2023-07-31T03:41:53;6.93;;;4.90;;
12171;SDS011;6149;52.418;13.668;2023-07-31T03:44:20;8.03;;;4.83;;
12171;SDS011;6149;52.418;13.668;2023-07-31T03:46:46;8.17;;;4.80;;
12171;SDS011;6149;52.418;13.668;2023-07-31T03:49:13;6.33;;;4.70;;
12171;SDS011;6149;52.418;13.668;2023-07-31T03:51:39;6.70;;;5.03;;
12171;SDS011;6149;52.418;13.668;2023-07-31T03:54:06;7.70;;;5.10;;
12171;SDS011;6149;52.418;13.668;2023-07-31T03:56:33;8.77;;;4.97;;
12171;SDS011;6149;52.418;13.668;2023-07-31T03:59:01;9.93;;;5.07;;
12171;SDS011;6149;52.418;13.668;2023-07-31T04:01:28;8.20;;;4.93;;
12171;SDS011;6149;52.418;13.668;2023-07-31T04:03:54;9.97;;;4.80;;
12171;SDS011;6149;52.418;13.668;2023-07-31T04:06:21;8.20;;;4.70;;
12171;SDS011;6149;52.418;13.668;2023-07-31T04:08:47;6.10;;;4.60;;
12171;SDS011;6149;52.418;13.668;2023-07-31T04:11:14;8.07;;;4.90;;
12171;SDS011;6149;52.418;13.668;2023-07-31T04:13:40;6.70;;;4.20;;
12171;SDS011;6149;52.418;13.668;2023-07-31T04:16:08;9.33;;;4.93;;
12171;SDS011;6149;52.418;13.668;2023-07-31T04:18:35;8.27;;;4.80;;
12171;SDS011;6149;52.418;13.668;2023-07-31T04:21:02;6.93;;;5.23;;
12171;SDS011;6149;52.418;13.668;2023-07-31T04:23:29;7.10;;;4.70;;
12171;SDS011;6149;52.418;13.668;2023-07-31T04:25:56;6.17;;;4.83;;
12171;SDS011;6149;52.418;13.668;2023-07-31T04:28:22;6.37;;;4.47;;
12171;SDS011;6149;52.418;13.668;2023-07-31T04:30:51;9.87;;;4.30;;
12171;SDS011;6149;52.418;13.668;2023-07-31T04:33:19;5.40;;;4.33;;
12171;SDS011;6149;52.418;13.668;2023-07-31T04:35:48;9.07;;;4.80;;
12171;SDS011;6149;52.418;13.668;2023-07-31T04:38:17;6.67;;;4.23;;
12171;SDS011;6149;52.418;13.668;2023-07-31T04:40:43;8.20;;;4.57;;
12171;SDS011;6149;52.418;13.668;2023-07-31T04:43:10;7.43;;;4.30;;
12171;SDS011;6149;52.418;13.668;2023-07-31T04:45:36;5.97;;;4.33;;
12171;SDS011;6149;52.418;13.668;2023-07-31T04:48:03;7.20;;;4.50;;
12171;SDS011;6149;52.418;13.668;2023-07-31T04:50:32;6.20;;;4.00;;
12171;SDS011;6149;52.418;13.668;2023-07-31T04:52:58;7.37;;;4.27;;
12171;SDS011;6149;52.418;13.668;2023-07-31T04:55:25;9.20;;;4.00;;
12171;SDS011;6149;52.418;13.668;2023-07-31T04:57:51;7.70;;;4.03;;
12171;SDS011;6149;52.418;13.668;2023-07-31T05:00:19;6.80;;;4.43;;
12171;SDS011;6149;52.418;13.668;2023-07-31T05:02:46;5.83;;;3.87;;
12171;SDS011;6149;52.418;13.668;2023-07-31T05:05:12;5.50;;;3.83;;
12171;SDS011;6149;52.418;13.668;2023-07-31T05:07:40;6.63;;;4.10;;
12171;SDS011;6149;52.418;13.668;2023-07-31T05:10:07;5.80;;;4.17;;
12171;SDS011;6149;52.418;13.668;2023-07-31T05:12:36;10.50;;;4.00;;
12171;SDS011;6149;52.418;13.668;2023-07-31T05:15:03;8.77;;;4.17;;
12171;SDS011;6149;52.418;13.668;2023-07-31T05:17:31;8.60;;;4.10;;
12171;SDS011;6149;52.418;13.668;2023-07-31T05:19:57;7.53;;;4.30;;
12171;SDS011;6149;52.418;13.668;2023-07-31T05:22:24;5.73;;;4.03;;
12171;SDS011;6149;52.418;13.668;2023-07-31T05:24:52;8.23;;;4.10;;
12171;SDS011;6149;52.418;13.668;2023-07-31T05:27:19;8.97;;;4.03;;
12171;SDS011;6149;52.418;13.668;2023-07-31T05:29:45;7.37;;;4.13;;
12171;SDS011;6149;52.418;13.668;2023-07-31T05:32:12;5.93;;;3.50;;
12171;SDS011;6149;52.418;13.668;2023-07-31T05:34:38;10.33;;;3.70;;
12171;SDS011;6149;52.418;13.668;2023-07-31T05:37:05;9.17;;;3.90;;
12171;SDS011;6149;52.418;13.668;2023-07-31T05:39:32;10.50;;;4.00;;
12171;SDS011;6149;52.418;13.668;2023-07-31T05:42:02;5.33;;;3.37;;
12171;SDS011;6149;52.418;13.668;2023-07-31T05:44:29;6.53;;;3.90;;
12171;SDS011;6149;52.418;13.668;2023-07-31T05:46:55;8.53;;;3.93;;
12171;SDS011;6149;52.418;13.668;2023-07-31T05:49:22;7.43;;;3.80;;
12171;SDS011;6149;52.418;13.668;2023-07-31T05:51:48;5.97;;;3.97;;
12171;SDS011;6149;52.418;13.668;2023-07-31T05:54:15;6.70;;;4.07;;
12171;SDS011;6149;52.418;13.668;2023-07-31T05:56:42;5.70;;;3.80;;
12171;SDS011;6149;52.418;13.668;2023-07-31T05:59:09;6.27;;;4.20;;
12171;SDS011;6149;52.418;13.668;2023-07-31T06:01:38;6.07;;;3.93;;
12171;SDS011;6149;52.418;13.668;2023-07-31T06:04:06;6.27;;;3.83;;
12171;SDS011;6149;52.418;13.668;2023-07-31T06:06:32;6.87;;;3.97;;
12171;SDS011;6149;52.418;13.668;2023-07-31T06:08:59;9.13;;;4.30;;
12171;SDS011;6149;52.418;13.668;2023-07-31T06:11:25;10.80;;;4.43;;
12171;SDS011;6149;52.418;13.668;2023-07-31T06:13:52;8.07;;;3.73;;
12171;SDS011;6149;52.418;13.668;2023-07-31T06:16:20;4.47;;;3.60;;
12171;SDS011;6149;52.418;13.668;2023-07-31T06:18:47;6.33;;;3.80;;
12171;SDS011;6149;52.418;13.668;2023-07-31T06:21:13;9.03;;;3.77;;
12171;SDS011;6149;52.418;13.668;2023-07-31T06:23:40;7.90;;;3.80;;
12171;SDS011;6149;52.418;13.668;2023-07-31T06:26:06;6.33;;;3.53;;
12171;SDS011;6149;52.418;13.668;2023-07-31T06:28:34;8.10;;;3.50;;
12171;SDS011;6149;52.418;13.668;2023-07-31T06:31:01;5.60;;;3.73;;
12171;SDS011;6149;52.418;13.668;2023-07-31T06:33:29;8.80;;;4.30;;
12171;SDS011;6149;52.418;13.668;2023-07-31T06:35:55;6.40;;;3.80;;
12171;SDS011;6149;52.418;13.668;2023-07-31T06:38:22;9.87;;;3.77;;
12171;SDS011;6149;52.418;13.668;2023-07-31T06:40:53;7.80;;;4.00;;
12171;SDS011;6149;52.418;13.668;2023-07-31T06:43:20;7.60;;;4.13;;
12171;SDS011;6149;52.418;13.668;2023-07-31T06:46:05;8.67;;;4.10;;
12171;SDS011;6149;52.418;13.668;2023-07-31T06:48:34;7.77;;;3.83;;
12171;SDS011;6149;52.418;13.668;2023-07-31T06:51:02;9.43;;;3.90;;
12171;SDS011;6149;52.418;13.668;2023-07-31T06:53:30;7.47;;;3.70;;
12171;SDS011;6149;52.418;13.668;2023-07-31T06:55:59;6.40;;;3.87;;
12171;SDS011;6149;52.418;13.668;2023-07-31T06:58:27;7.33;;;3.70;;
12171;SDS011;6149;52.418;13.668;2023-07-31T07:00:54;8.17;;;3.83;;
12171;SDS011;6149;52.418;13.668;2023-07-31T07:03:20;8.37;;;3.40;;
12171;SDS011;6149;52.418;13.668;2023-07-31T07:05:48;4.80;;;3.37;;
12171;SDS011;6149;52.418;13.668;2023-07-31T07:08:15;7.37;;;4.00;;
12171;SDS011;6149;52.418;13.668;2023-07-31T07:10:41;8.13;;;3.90;;
12171;SDS011;6149;52.418;13.668;2023-07-31T07:13:08;9.47;;;4.43;;
12171;SDS011;6149;52.418;13.668;2023-07-31T07:15:36;5.60;;;3.87;;
12171;SDS011;6149;52.418;13.668;2023-07-31T07:18:03;8.83;;;3.80;;
12171;SDS011;6149;52.418;13.668;2023-07-31T07:20:29;8.07;;;3.77;;
12171;SDS011;6149;52.418;13.668;2023-07-31T07:22:59;6.37;;;3.83;;
12171;SDS011;6149;52.418;13.668;2023-07-31T07:25:25;7.40;;;3.87;;
12171;SDS011;6149;52.418;13.668;2023-07-31T07:27:52;7.33;;;4.30;;
12171;SDS011;6149;52.418;13.668;2023-07-31T07:30:21;6.37;;;4.20;;
12171;SDS011;6149;52.418;13.668;2023-07-31T07:32:50;11.37;;;4.33;;
12171;SDS011;6149;52.418;13.668;2023-07-31T07:35:16;7.00;;;4.10;;
12171;SDS011;6149;52.418;13.668;2023-07-31T07:37:43;8.43;;;3.90;;
12171;SDS011;6149;52.418;13.668;2023-07-31T07:40:11;8.40;;;4.43;;
12171;SDS011;6149;52.418;13.668;2023-07-31T07:42:37;8.57;;;4.60;;
12171;SDS011;6149;52.418;13.668;2023-07-31T07:45:04;7.57;;;4.33;;
12171;SDS011;6149;52.418;13.668;2023-07-31T07:47:32;5.80;;;4.00;;
12171;SDS011;6149;52.418;13.668;2023-07-31T07:49:59;6.90;;;4.30;;
12171;SDS011;6149;52.418;13.668;2023-07-31T07:52:49;6.67;;;4.03;;
12171;SDS011;6149;52.418;13.668;2023-07-31T07:55:18;5.97;;;3.93;;
12171;SDS011;6149;52.418;13.668;2023-07-31T07:57:45;9.03;;;4.43;;
12171;SDS011;6149;52.418;13.668;2023-07-31T08:00:12;7.33;;;4.10;;
12171;SDS011;6149;52.418;13.668;2023-07-31T08:02:42;8.30;;;4.50;;
12171;SDS011;6149;52.418;13.668;2023-07-31T08:05:09;5.23;;;4.00;;
12171;SDS011;6149;52.418;13.668;2023-07-31T08:07:35;8.20;;;4.53;;
12171;SDS011;6149;52.418;13.668;2023-07-31T08:10:02;7.47;;;4.23;;
12171;SDS011;6149;52.418;13.668;2023-07-31T08:12:33;6.67;;;4.17;;
12171;SDS011;6149;52.418;13.668;2023-07-31T08:15:01;8.13;;;4.60;;
12171;SDS011;6149;52.418;13.668;2023-07-31T08:17:29;5.93;;;3.60;;
12171;SDS011;6149;52.418;13.668;2023-07-31T08:19:55;5.60;;;3.50;;
12171;SDS011;6149;52.418;13.668;2023-07-31T08:22:23;8.17;;;3.73;;
12171;SDS011;6149;52.418;13.668;2023-07-31T08:24:50;5.40;;;3.40;;
12171;SDS011;6149;52.418;13.668;2023-07-31T08:27:16;5.93;;;3.70;;
12171;SDS011;6149;52.418;13.668;2023-07-31T08:29:44;5.53;;;3.60;;
12171;SDS011;6149;52.418;13.668;2023-07-31T08:32:10;5.67;;;3.40;;
12171;SDS011;6149;52.418;13.668;2023-07-31T08:34:37;6.37;;;3.67;;
12171;SDS011;6149;52.418;13.668;2023-07-31T08:37:04;4.27;;;3.60;;
12171;SDS011;6149;52.418;13.668;2023-07-31T08:39:30;4.07;;;3.50;;
12171;SDS011;6149;52.418;13.668;2023-07-31T08:41:57;5.17;;;3.77;;
12171;SDS011;6149;52.418;13.668;2023-07-31T08:44:25;5.10;;;3.80;;
12171;SDS011;6149;52.418;13.668;2023-07-31T08:46:53;6.40;;;3.93;;
12171;SDS011;6149;52.418;13.668;2023-07-31T08:49:20;5.20;;;3.77;;
12171;SDS011;6149;52.418;13.668;2023-07-31T08:51:48;6.53;;;3.83;;
12171;SDS011;6149;52.418;13.668;2023-07-31T08:54:17;7.23;;;3.87;;
12171;SDS011;6149;52.418;13.668;2023-07-31T08:56:44;6.70;;;4.37;;
12171;SDS011;6149;52.418;13.668;2023-07-31T08:59:11;5.27;;;4.00;;
12171;SDS011;6149;52.418;13.668;2023-07-31T09:01:43;7.03;;;4.10;;
12171;SDS011;6149;52.418;13.668;2023-07-31T09:04:17;6.37;;;3.87;;
12171;SDS011;6149;52.418;13.668;2023-07-31T09:06:47;6.73;;;3.87;;
12171;SDS011;6149;52.418;13.668;2023-07-31T09:09:16;5.67;;;3.50;;
12171;SDS011;6149;52.418;13.668;2023-07-31T09:11:45;5.23;;;3.80;;
12171;SDS011;6149;52.418;13.668;2023-07-31T09:14:12;5.97;;;3.27;;
12171;SDS011;6149;52.418;13.668;2023-07-31T09:16:51;6.40;;;3.50;;
12171;SDS011;6149;52.418;13.668;2023-07-31T09:19:26;4.63;;;3.00;;
12171;SDS011;6149;52.418;13.668;2023-07-31T09:21:56;4.17;;;3.53;;
12171;SDS011;6149;52.418;13.668;2023-07-31T09:24:26;6.20;;;3.30;;
12171;SDS011;6149;52.418;13.668;2023-07-31T09:26:55;5.30;;;3.13;;
12171;SDS011;6149;52.418;13.668;2023-07-31T09:29:23;4.97;;;2.60;;
12171;SDS011;6149;52.418;13.668;2023-07-31T09:31:56;5.43;;;2.33;;
12171;SDS011;6149;52.418;13.668;2023-07-31T09:34:28;3.53;;;2.30;;
12171;SDS011;6149;52.418;13.668;2023-07-31T09:36:58;2.80;;;1.77;;
12171;SDS011;6149;52.418;13.668;2023-07-31T09:39:29;2.00;;;1.60;;
12171;SDS011;6149;52.418;13.668;2023-07-31T09:41:56;2.30;;;1.60;;
12171;SDS011;6149;52.418;13.668;2023-07-31T09:44:29;2.67;;;1.60;;
12171;SDS011;6149;52.418;13.668;2023-07-31T09:47:06;2.27;;;1.50;;
12171;SDS011;6149;52.418;13.668;2023-07-31T09:49:33;2.30;;;1.30;;
12171;SDS011;6149;52.418;13.668;2023-07-31T09:52:00;2.23;;;1.43;;
12171;SDS011;6149;52.418;13.668;2023-07-31T09:54:27;3.33;;;1.00;;
12171;SDS011;6149;52.418;13.668;2023-07-31T09:56:55;2.17;;;1.20;;
12171;SDS011;6149;52.418;13.668;2023-07-31T09:59:25;1.70;;;1.00;;
12171;SDS011;6149;52.418;13.668;2023-07-31T10:01:51;1.60;;;1.40;;
12171;SDS011;6149;52.418;13.668;2023-07-31T10:04:25;1.83;;;1.40;;
12171;SDS011;6149;52.418;13.668;2023-07-31T10:06:55;3.63;;;1.90;;
12171;SDS011;6149;52.418;13.668;2023-07-31T10:09:25;3.53;;;2.00;;
12171;SDS011;6149;52.418;13.668;2023-07-31T10:11:55;3.20;;;2.17;;
12171;SDS011;6149;52.418;13.668;2023-07-31T10:14:27;6.13;;;2.70;;
12171;SDS011;6149;52.418;13.668;2023-07-31T10:16:54;4.67;;;2.87;;
12171;SDS011;6149;52.418;13.668;2023-07-31T10:19:23;2.80;;;2.37;;
12171;SDS011;6149;52.418;13.668;2023-07-31T10:21:52;4.10;;;3.00;;
12171;SDS011;6149;52.418;13.668;2023-07-31T10:24:24;4.20;;;2.73;;
12171;SDS011;6149;52.418;13.668;2023-07-31T10:26:53;5.60;;;2.90;;
12171;SDS011;6149;52.418;13.668;2023-07-31T10:29:24;5.53;;;3.07;;
12171;SDS011;6149;52.418;13.668;2023-07-31T10:31:51;4.57;;;3.43;;
12171;SDS011;6149;52.418;13.668;2023-07-31T10:34:18;6.07;;;3.57;;
12171;SDS011;6149;52.418;13.668;2023-07-31T10:36:45;4.33;;;3.60;;
12171;SDS011;6149;52.418;13.668;2023-07-31T10:42:11;5.33;;;3.60;;
12171;SDS011;6149;52.418;13.668;2023-07-31T10:44:43;7.40;;;3.93;;
12171;SDS011;6149;52.418;13.668;2023-07-31T10:47:14;5.77;;;3.80;;
12171;SDS011;6149;52.418;13.668;2023-07-31T10:49:44;5.17;;;3.63;;
12171;SDS011;6149;52.418;13.668;2023-07-31T10:52:13;8.00;;;4.20;;
12171;SDS011;6149;52.418;13.668;2023-07-31T10:54:49;6.70;;;4.20;;
12171;SDS011;6149;52.418;13.668;2023-07-31T10:57:19;6.70;;;4.17;;
12171;SDS011;6149;52.418;13.668;2023-07-31T10:59:47;7.93;;;4.40;;
12171;SDS011;6149;52.418;13.668;2023-07-31T11:02:24;6.10;;;4.20;;
12171;SDS011;6149;52.418;13.668;2023-07-31T11:05:07;6.27;;;4.33;;
12171;SDS011;6149;52.418;13.668;2023-07-31T11:07:47;6.10;;;3.93;;
12171;SDS011;6149;52.418;13.668;2023-07-31T11:10:18;6.93;;;3.73;;
12171;SDS011;6149;52.418;13.668;2023-07-31T11:12:45;4.73;;;4.03;;
12171;SDS011;6149;52.418;13.668;2023-07-31T11:15:12;6.53;;;4.10;;
12171;SDS011;6149;52.418;13.668;2023-07-31T11:17:40;5.30;;;3.63;;
12171;SDS011;6149;52.418;13.668;2023-07-31T11:20:07;6.03;;;4.03;;
12171;SDS011;6149;52.418;13.668;2023-07-31T11:22:36;6.97;;;4.07;;
12171;SDS011;6149;52.418;13.668;2023-07-31T11:25:02;7.30;;;3.80;;
12171;SDS011;6149;52.418;13.668;2023-07-31T11:27:38;4.37;;;3.23;;
12171;SDS011;6149;52.418;13.668;2023-07-31T11:30:06;6.53;;;4.07;;
12171;SDS011;6149;52.418;13.668;2023-07-31T11:32:36;5.00;;;3.27;;
12171;SDS011;6149;52.418;13.668;2023-07-31T11:35:04;7.67;;;3.60;;
12171;SDS011;6149;52.418;13.668;2023-07-31T11:37:39;4.50;;;3.27;;
12171;SDS011;6149;52.418;13.668;2023-07-31T11:40:06;4.13;;;3.27;;
12171;SDS011;6149;52.418;13.668;2023-07-31T11:42:36;5.70;;;3.53;;
12171;SDS011;6149;52.418;13.668;2023-07-31T11:45:03;4.70;;;3.00;;
12171;SDS011;6149;52.418;13.668;2023-07-31T11:47:32;3.30;;;2.80;;
12171;SDS011;6149;52.418;13.668;2023-07-31T11:50:00;5.83;;;3.33;;
12171;SDS011;6149;52.418;13.668;2023-07-31T11:52:28;3.60;;;2.93;;
12171;SDS011;6149;52.418;13.668;2023-07-31T11:54:59;5.03;;;3.23;;
12171;SDS011;6149;52.418;13.668;2023-07-31T11:57:26;5.83;;;2.87;;
12171;SDS011;6149;52.418;13.668;2023-07-31T11:59:55;4.93;;;3.03;;
12171;SDS011;6149;52.418;13.668;2023-07-31T12:02:26;5.70;;;3.10;;
12171;SDS011;6149;52.418;13.668;2023-07-31T12:04:52;5.53;;;2.77;;
12171;SDS011;6149;52.418;13.668;2023-07-31T12:07:21;4.43;;;3.07;;
12171;SDS011;6149;52.418;13.668;2023-07-31T12:09:52;3.90;;;3.03;;
12171;SDS011;6149;52.418;13.668;2023-07-31T12:12:19;4.37;;;2.97;;
12171;SDS011;6149;52.418;13.668;2023-07-31T12:14:47;5.90;;;3.30;;
12171;SDS011;6149;52.418;13.668;2023-07-31T12:17:15;6.60;;;2.90;;
12171;SDS011;6149;52.418;13.668;2023-07-31T12:19:42;5.10;;;3.20;;
12171;SDS011;6149;52.418;13.668;2023-07-31T12:22:12;5.33;;;3.17;;
12171;SDS011;6149;52.418;13.668;2023-07-31T12:24:39;3.63;;;2.73;;
12171;SDS011;6149;52.418;13.668;2023-07-31T12:27:10;5.63;;;3.67;;
12171;SDS011;6149;52.418;13.668;2023-07-31T12:29:39;6.10;;;3.20;;
12171;SDS011;6149;52.418;13.668;2023-07-31T12:32:24;5.50;;;3.00;;
12171;SDS011;6149;52.418;13.668;2023-07-31T12:34:55;4.87;;;2.60;;
12171;SDS011;6149;52.418;13.668;2023-07-31T12:37:26;4.53;;;2.93;;
12171;SDS011;6149;52.418;13.668;2023-07-31T12:39:52;6.30;;;3.07;;
12171;SDS011;6149;52.418;13.668;2023-07-31T12:42:21;6.13;;;2.90;;
12171;SDS011;6149;52.418;13.668;2023-07-31T12:44:48;5.30;;;2.90;;
12171;SDS011;6149;52.418;13.668;2023-07-31T12:47:16;5.63;;;2.83;;
12171;SDS011;6149;52.418;13.668;2023-07-31T12:49:44;4.57;;;2.80;;
12171;SDS011;6149;52.418;13.668;2023-07-31T12:52:13;4.83;;;2.57;;
12171;SDS011;6149;52.418;13.668;2023-07-31T12:54:41;3.83;;;2.50;;
12171;SDS011;6149;52.418;13.668;2023-07-31T12:57:11;3.70;;;2.70;;
12171;SDS011;6149;52.418;13.668;2023-07-31T12:59:37;3.70;;;2.67;;
12171;SDS011;6149;52.418;13.668;2023-07-31T13:02:04;3.87;;;2.47;;
12171;SDS011;6149;52.418;13.668;2023-07-31T13:04:32;4.43;;;2.53;;
12171;SDS011;6149;52.418;13.668;2023-07-31T13:07:05;4.23;;;2.37;;
12171;SDS011;6149;52.418;13.668;2023-07-31T13:09:32;4.30;;;2.47;;
12171;SDS011;6149;52.418;13.668;2023-07-31T13:11:59;4.20;;;2.43;;
12171;SDS011;6149;52.418;13.668;2023-07-31T13:14:29;4.07;;;2.73;;
12171;SDS011;6149;52.418;13.668;2023-07-31T13:16:57;4.73;;;2.90;;
12171;SDS011;6149;52.418;13.668;2023-07-31T13:19:33;3.33;;;2.50;;
12171;SDS011;6149;52.418;13.668;2023-07-31T13:22:03;4.07;;;2.30;;
12171;SDS011;6149;52.418;13.668;2023-07-31T13:24:31;4.77;;;2.70;;
12171;SDS011;6149;52.418;13.668;2023-07-31T13:27:01;5.23;;;2.43;;
12171;SDS011;6149;52.418;13.668;2023-07-31T13:29:31;4.37;;;3.00;;
12171;SDS011;6149;52.418;13.668;2023-07-31T13:31:59;6.00;;;2.73;;
12171;SDS011;6149;52.418;13.668;2023-07-31T13:34:29;3.87;;;2.53;;
12171;SDS011;6149;52.418;13.668;2023-07-31T13:36:57;4.30;;;3.20;;
12171;SDS011;6149;52.418;13.668;2023-07-31T13:39:27;4.77;;;2.97;;
12171;SDS011;6149;52.418;13.668;2023-07-31T13:41:55;4.03;;;3.07;;
12171;SDS011;6149;52.418;13.668;2023-07-31T13:44:21;6.27;;;3.37;;
12171;SDS011;6149;52.418;13.668;2023-07-31T13:46:48;6.90;;;3.10;;
12171;SDS011;6149;52.418;13.668;2023-07-31T13:49:14;4.77;;;3.17;;
12171;SDS011;6149;52.418;13.668;2023-07-31T13:51:41;4.73;;;2.87;;
12171;SDS011;6149;52.418;13.668;2023-07-31T13:54:07;6.97;;;3.60;;
12171;SDS011;6149;52.418;13.668;2023-07-31T13:56:42;5.10;;;3.70;;
12171;SDS011;6149;52.418;13.668;2023-07-31T13:59:13;4.67;;;3.40;;
12171;SDS011;6149;52.418;13.668;2023-07-31T14:01:43;5.07;;;3.30;;
12171;SDS011;6149;52.418;13.668;2023-07-31T14:04:10;5.33;;;3.23;;
12171;SDS011;6149;52.418;13.668;2023-07-31T14:06:40;6.50;;;3.53;;
12171;SDS011;6149;52.418;13.668;2023-07-31T14:09:08;4.67;;;3.37;;
12171;SDS011;6149;52.418;13.668;2023-07-31T14:11:36;5.53;;;3.10;;
12171;SDS011;6149;52.418;13.668;2023-07-31T14:14:04;4.80;;;3.30;;
12171;SDS011;6149;52.418;13.668;2023-07-31T14:16:31;3.93;;;3.27;;
12171;SDS011;6149;52.418;13.668;2023-07-31T14:18:59;5.20;;;3.63;;
12171;SDS011;6149;52.418;13.668;2023-07-31T14:21:29;3.67;;;3.13;;
12171;SDS011;6149;52.418;13.668;2023-07-31T14:23:59;6.33;;;3.20;;
12171;SDS011;6149;52.418;13.668;2023-07-31T14:26:26;4.93;;;3.40;;
12171;SDS011;6149;52.418;13.668;2023-07-31T14:28:55;4.87;;;3.30;;
12171;SDS011;6149;52.418;13.668;2023-07-31T14:31:39;5.43;;;3.60;;
12171;SDS011;6149;52.418;13.668;2023-07-31T14:34:05;5.70;;;3.70;;
12171;SDS011;6149;52.418;13.668;2023-07-31T14:36:33;6.10;;;3.20;;
12171;SDS011;6149;52.418;13.668;2023-07-31T14:39:01;4.63;;;3.30;;
12171;SDS011;6149;52.418;13.668;2023-07-31T14:41:27;4.47;;;3.60;;
12171;SDS011;6149;52.418;13.668;2023-07-31T14:43:55;4.97;;;3.63;;
12171;SDS011;6149;52.418;13.668;2023-07-31T14:46:38;4.40;;;3.20;;
12171;SDS011;6149;52.418;13.668;2023-07-31T14:49:05;4.50;;;3.47;;
12171;SDS011;6149;52.418;13.668;2023-07-31T14:51:34;5.37;;;3.40;;
12171;SDS011;6149;52.418;13.668;2023-07-31T14:54:02;5.17;;;3.37;;
12171;SDS011;6149;52.418;13.668;2023-07-31T14:56:30;4.10;;;3.30;;